Time,TemperatureF,DewpointF,PressureIn,WindDirection,WindDirectionDegrees,WindSpeedMPH,WindSpeedGustMPH,Humidity,HourlyPrecipIn,Conditions,Clouds,dailyrainin,SoftwareType,DateUTC
2013-08-07 05:11:00,62.0,58.0,-100.00,WNW,299,1.0,6.0,87,-99.99,,,0.00,,2013-08-07 11:11:00,
2013-08-07 05:22:00,62.0,58.0,-100.00,WNW,299,1.0,6.0,87,-99.99,,,0.00,,2013-08-07 11:22:00,
2013-08-07 05:32:00,62.0,58.0,-100.00,WNW,299,1.0,6.0,87,-99.99,,,0.00,,2013-08-07 11:32:00,
2013-08-07 05:43:00,62.0,58.0,-100.00,WNW,299,1.0,6.0,87,-99.99,,,0.00,,2013-08-07 11:43:00,
2013-08-07 05:52:00,62.0,58.0,-100.00,WNW,299,1.0,6.0,87,-99.99,,,0.00,,2013-08-07 11:52:00,
2013-08-07 07:32:00,57.0,54.0,-100.00,West,277,0.0,2.0,89,0.00,,,0.00,,2013-08-07 13:32:00,
2013-08-07 07:44:00,57.0,54.0,-100.00,West,277,0.0,2.0,89,0.00,,,0.00,,2013-08-07 13:44:00,
2013-08-07 07:52:00,57.0,54.0,-100.00,West,277,0.0,2.0,89,0.00,,,0.00,,2013-08-07 13:52:00,
2013-08-07 08:22:00,70.0,62.0,-100.00,North,3,2.0,4.0,76,-99.99,,,0.00,,2013-08-07 14:22:00,
2013-08-07 08:33:00,70.0,62.0,-100.00,North,3,2.0,4.0,76,-99.99,,,0.00,,2013-08-07 14:33:00,
2013-08-07 08:43:00,70.0,62.0,-100.00,North,3,2.0,4.0,76,-99.99,,,0.00,,2013-08-07 14:43:00,
2013-08-07 08:52:00,70.0,62.0,-100.00,North,3,2.0,4.0,76,-99.99,,,0.00,,2013-08-07 14:52:00,
2013-08-07 08:53:00,72.0,55.0,-100.00,North,6,2.0,6.0,55,0.00,,,0.00,,2013-08-07 14:53:00,
2013-08-07 09:22:00,72.0,55.0,-100.00,North,6,2.0,6.0,55,0.00,,,0.00,,2013-08-07 15:22:00,
2013-08-07 09:33:00,72.0,55.0,-100.00,North,6,2.0,6.0,55,0.00,,,0.00,,2013-08-07 15:33:00,
2013-08-07 09:43:00,72.0,55.0,-100.00,North,6,2.0,6.0,55,0.00,,,0.00,,2013-08-07 15:43:00,
2013-08-07 10:11:00,76.0,56.0,-100.00,WNW,286,2.0,6.0,50,0.00,,,0.00,,2013-08-07 16:11:00,
2013-08-07 10:22:00,76.0,56.0,-100.00,WNW,286,2.0,6.0,50,0.00,,,0.00,,2013-08-07 16:22:00,
2013-08-07 10:33:00,76.0,56.0,-100.00,WNW,286,2.0,6.0,50,0.00,,,0.00,,2013-08-07 16:33:00,
2013-08-07 10:43:00,76.0,56.0,-100.00,WNW,286,2.0,6.0,50,0.00,,,0.00,,2013-08-07 16:43:00,
2013-08-07 10:52:00,76.0,56.0,-100.00,WNW,286,2.0,6.0,50,0.00,,,0.00,,2013-08-07 16:52:00,
2013-08-07 11:22:00,78.0,53.0,-100.00,WSW,243,3.0,10.0,42,0.00,,,0.00,,2013-08-07 17:22:00,
2013-08-07 11:33:00,78.0,53.0,-100.00,WSW,243,3.0,10.0,42,0.00,,,0.00,,2013-08-07 17:33:00,
2013-08-07 11:43:00,78.0,53.0,-100.00,WSW,243,3.0,10.0,42,0.00,,,0.00,,2013-08-07 17:43:00,
2013-08-07 11:52:00,78.0,53.0,-100.00,WSW,243,3.0,10.0,42,0.00,,,0.00,,2013-08-07 17:52:00,
2013-08-07 12:22:00,77.0,50.0,-100.00,WSW,246,6.0,22.0,39,0.00,,,0.00,,2013-08-07 18:22:00,
2013-08-07 12:32:00,77.0,50.0,-100.00,WSW,246,6.0,22.0,39,0.00,,,0.00,,2013-08-07 18:32:00,
2013-08-07 12:43:00,77.0,50.0,-100.00,WSW,246,6.0,22.0,39,0.00,,,0.00,,2013-08-07 18:43:00,
2013-08-07 12:52:00,77.0,50.0,-100.00,WSW,246,6.0,22.0,39,0.00,,,0.00,,2013-08-07 18:52:00,
2013-08-07 13:11:00,74.0,55.0,-100.00,WSW,256,9.0,26.0,52,0.00,,,0.00,,2013-08-07 19:11:00,
2013-08-07 13:22:00,74.0,55.0,-100.00,WSW,256,9.0,26.0,52,0.00,,,0.00,,2013-08-07 19:22:00,
2013-08-07 13:32:00,74.0,55.0,-100.00,WSW,256,9.0,26.0,52,0.00,,,0.00,,2013-08-07 19:32:00,
2013-08-07 13:44:00,74.0,55.0,-100.00,WSW,256,9.0,26.0,52,0.00,,,0.00,,2013-08-07 19:44:00,
2013-08-07 13:52:00,74.0,55.0,-100.00,WSW,256,9.0,26.0,52,0.00,,,0.00,,2013-08-07 19:52:00,
2013-08-07 14:22:00,80.0,50.0,-100.00,West,278,5.0,18.0,35,0.00,,,-99.99,,2013-08-07 20:22:00,
2013-08-07 14:32:00,80.0,50.0,-100.00,West,278,5.0,18.0,35,0.00,,,-99.99,,2013-08-07 20:32:00,
2013-08-07 14:43:00,80.0,50.0,-100.00,West,278,5.0,18.0,35,0.00,,,-99.99,,2013-08-07 20:43:00,
2013-08-07 14:52:00,80.0,50.0,-100.00,West,278,5.0,18.0,35,0.00,,,-99.99,,2013-08-07 20:52:00,
2013-08-07 15:11:00,83.0,49.0,-100.00,WSW,244,4.0,14.0,31,0.00,,,0.00,,2013-08-07 21:11:00,
2013-08-07 15:22:00,83.0,49.0,-100.00,WSW,244,4.0,14.0,31,0.00,,,0.00,,2013-08-07 21:22:00,
2013-08-07 15:32:00,83.0,49.0,-100.00,WSW,244,4.0,14.0,31,0.00,,,0.00,,2013-08-07 21:32:00,
2013-08-07 15:43:00,83.0,49.0,-100.00,WSW,244,4.0,14.0,31,0.00,,,0.00,,2013-08-07 21:43:00,
2013-08-07 15:52:00,83.0,49.0,-100.00,WSW,244,4.0,14.0,31,0.00,,,0.00,,2013-08-07 21:52:00,
2013-08-07 16:12:00,83.0,49.0,-100.00,SW,222,6.0,18.0,31,0.00,,,0.00,,2013-08-07 22:12:00,
2013-08-07 16:22:00,83.0,49.0,-100.00,SW,222,6.0,18.0,31,0.00,,,0.00,,2013-08-07 22:22:00,
2013-08-07 16:32:00,83.0,49.0,-100.00,SW,222,6.0,18.0,31,0.00,,,0.00,,2013-08-07 22:32:00,
2013-08-07 16:43:00,83.0,49.0,-100.00,SW,222,6.0,18.0,31,0.00,,,0.00,,2013-08-07 22:43:00,
2013-08-07 16:52:00,83.0,49.0,-100.00,SW,222,6.0,18.0,31,0.00,,,0.00,,2013-08-07 22:52:00,
2013-08-07 17:11:00,82.0,47.0,-100.00,SW,235,5.0,14.0,30,0.00,,,0.00,,2013-08-07 23:11:00,
2013-08-07 17:22:00,82.0,47.0,-100.00,SW,235,5.0,14.0,30,0.00,,,0.00,,2013-08-07 23:22:00,
2013-08-07 17:32:00,82.0,47.0,-100.00,SW,235,5.0,14.0,30,0.00,,,0.00,,2013-08-07 23:32:00,
2013-08-07 17:43:00,82.0,47.0,-100.00,SW,235,5.0,14.0,30,0.00,,,0.00,,2013-08-07 23:43:00,
2013-08-07 17:52:00,82.0,47.0,-100.00,SW,235,5.0,14.0,30,0.00,,,0.00,,2013-08-07 23:52:00,
2013-08-07 18:11:00,81.0,47.0,-100.00,West,275,8.0,21.0,31,0.00,,,0.00,,2013-08-08 00:11:00,
2013-08-07 18:22:00,81.0,47.0,-100.00,West,275,8.0,21.0,31,0.00,,,0.00,,2013-08-08 00:22:00,
2013-08-07 18:32:00,81.0,47.0,-100.00,West,275,8.0,21.0,31,0.00,,,0.00,,2013-08-08 00:32:00,
2013-08-07 18:42:00,81.0,47.0,-100.00,West,275,8.0,21.0,31,0.00,,,0.00,,2013-08-08 00:42:00,
2013-08-07 18:52:00,81.0,47.0,-100.00,West,275,8.0,21.0,31,0.00,,,0.00,,2013-08-08 00:52:00,
2013-08-07 19:11:00,78.0,47.0,-100.00,WNW,303,7.0,17.0,34,0.00,,,0.00,,2013-08-08 01:11:00,
2013-08-07 19:22:00,78.0,47.0,-100.00,WNW,303,7.0,17.0,34,0.00,,,0.00,,2013-08-08 01:22:00,
2013-08-07 19:32:00,78.0,47.0,-100.00,WNW,303,7.0,17.0,34,0.00,,,0.00,,2013-08-08 01:32:00,
2013-08-07 19:43:00,78.0,47.0,-100.00,WNW,303,7.0,17.0,34,0.00,,,0.00,,2013-08-08 01:43:00,
2013-08-07 19:52:00,78.0,47.0,-100.00,WNW,303,7.0,17.0,34,0.00,,,0.00,,2013-08-08 01:52:00,
2013-08-07 20:11:00,75.0,50.0,-100.00,NNW,340,6.0,14.0,41,0.00,,,0.00,,2013-08-08 02:11:00,
2013-08-07 20:22:00,75.0,50.0,-100.00,NNW,340,6.0,14.0,41,0.00,,,0.00,,2013-08-08 02:22:00,
2013-08-07 20:32:00,75.0,50.0,-100.00,NNW,340,6.0,14.0,41,0.00,,,0.00,,2013-08-08 02:32:00,
2013-08-07 20:42:00,75.0,50.0,-100.00,NNW,340,6.0,14.0,41,0.00,,,0.00,,2013-08-08 02:42:00,
2013-08-07 20:52:00,75.0,50.0,-100.00,NNW,340,6.0,14.0,41,0.00,,,0.00,,2013-08-08 02:52:00,
2013-08-07 21:12:00,73.0,49.0,-100.00,NNW,340,4.0,11.0,43,0.00,,,0.00,,2013-08-08 03:12:00,
2013-08-07 21:22:00,73.0,49.0,-100.00,NNW,340,4.0,11.0,43,0.00,,,0.00,,2013-08-08 03:22:00,
2013-08-07 21:32:00,73.0,49.0,-100.00,NNW,340,4.0,11.0,43,0.00,,,0.00,,2013-08-08 03:32:00,
2013-08-07 21:43:00,73.0,49.0,-100.00,NNW,340,4.0,11.0,43,0.00,,,0.00,,2013-08-08 03:43:00,
2013-08-07 21:52:00,73.0,49.0,-100.00,NNW,340,4.0,11.0,43,0.00,,,0.00,,2013-08-08 03:52:00,
2013-08-07 21:53:00,68.0,50.0,-100.00,NNW,347,3.0,9.0,52,0.00,,,0.00,,2013-08-08 03:53:00,
2013-08-07 22:11:00,68.0,50.0,-100.00,NNW,347,3.0,9.0,52,0.00,,,0.00,,2013-08-08 04:11:00,
2013-08-07 22:22:00,68.0,50.0,-100.00,NNW,347,3.0,9.0,52,0.00,,,0.00,,2013-08-08 04:22:00,
2013-08-07 22:33:00,68.0,50.0,-100.00,NNW,347,3.0,9.0,52,0.00,,,0.00,,2013-08-08 04:33:00,
2013-08-07 22:43:00,68.0,50.0,-100.00,NNW,347,3.0,9.0,52,0.00,,,0.00,,2013-08-08 04:43:00,